sensor_id;sensor_type;location;lat;lon;timestamp;P1;durP1;ratioP1;P2;durP2;ratioP2
34928;SDS011;21133;48.048;7.724;2023-04-24T00:00:47;0.60;;;0.60;;
34928;SDS011;21133;48.048;7.724;2023-04-24T00:03:13;0.40;;;0.40;;
34928;SDS011;21133;48.048;7.724;2023-04-24T00:05:41;0.40;;;0.40;;
34928;SDS011;21133;48.048;7.724;2023-04-24T00:08:07;0.60;;;0.60;;
34928;SDS011;21133;48.048;7.724;2023-04-24T00:10:33;0.40;;;0.40;;
34928;SDS011;21133;48.048;7.724;2023-04-24T00:12:59;0.50;;;0.50;;
34928;SDS011;21133;48.048;7.724;2023-04-24T00:15:25;0.40;;;0.40;;
34928;SDS011;21133;48.048;7.724;2023-04-24T00:17:51;0.40;;;0.40;;
34928;SDS011;21133;48.048;7.724;2023-04-24T00:20:18;1.83;;;0.40;;
34928;SDS011;21133;48.048;7.724;2023-04-24T00:22:44;0.50;;;0.50;;
34928;SDS011;21133;48.048;7.724;2023-04-24T00:25:10;0.80;;;0.80;;
34928;SDS011;21133;48.048;7.724;2023-04-24T00:27:36;1.83;;;0.40;;
34928;SDS011;21133;48.048;7.724;2023-04-24T00:30:03;0.60;;;0.60;;
34928;SDS011;21133;48.048;7.724;2023-04-24T00:32:30;0.53;;;0.53;;
34928;SDS011;21133;48.048;7.724;2023-04-24T00:34:56;1.57;;;0.40;;
34928;SDS011;21133;48.048;7.724;2023-04-24T00:37:21;0.30;;;0.30;;
34928;SDS011;21133;48.048;7.724;2023-04-24T00:39:47;0.40;;;0.40;;
34928;SDS011;21133;48.048;7.724;2023-04-24T00:42:13;0.43;;;0.40;;
34928;SDS011;21133;48.048;7.724;2023-04-24T00:44:40;0.40;;;0.40;;
34928;SDS011;21133;48.048;7.724;2023-04-24T00:47:06;1.30;;;0.50;;
34928;SDS011;21133;48.048;7.724;2023-04-24T00:49:32;2.00;;;0.50;;
34928;SDS011;21133;48.048;7.724;2023-04-24T00:51:58;0.40;;;0.40;;
34928;SDS011;21133;48.048;7.724;2023-04-24T00:54:24;1.63;;;0.40;;
34928;SDS011;21133;48.048;7.724;2023-04-24T00:56:50;0.50;;;0.40;;
34928;SDS011;21133;48.048;7.724;2023-04-24T00:59:17;1.40;;;0.40;;
34928;SDS011;21133;48.048;7.724;2023-04-24T01:01:43;0.73;;;0.73;;
34928;SDS011;21133;48.048;7.724;2023-04-24T01:04:10;0.60;;;0.60;;
34928;SDS011;21133;48.048;7.724;2023-04-24T01:06:38;0.30;;;0.30;;
34928;SDS011;21133;48.048;7.724;2023-04-24T01:09:04;1.23;;;0.50;;
34928;SDS011;21133;48.048;7.724;2023-04-24T01:11:30;0.33;;;0.33;;
34928;SDS011;21133;48.048;7.724;2023-04-24T01:13:56;0.40;;;0.40;;
34928;SDS011;21133;48.048;7.724;2023-04-24T01:16:23;0.43;;;0.43;;
34928;SDS011;21133;48.048;7.724;2023-04-24T01:18:49;0.50;;;0.50;;
34928;SDS011;21133;48.048;7.724;2023-04-24T01:21:16;0.30;;;0.30;;
34928;SDS011;21133;48.048;7.724;2023-04-24T01:23:46;5.53;;;0.50;;
34928;SDS011;21133;48.048;7.724;2023-04-24T01:26:16;0.57;;;0.50;;
34928;SDS011;21133;48.048;7.724;2023-04-24T01:28:42;0.63;;;0.63;;
34928;SDS011;21133;48.048;7.724;2023-04-24T01:31:08;0.40;;;0.40;;
34928;SDS011;21133;48.048;7.724;2023-04-24T01:33:34;0.30;;;0.30;;
34928;SDS011;21133;48.048;7.724;2023-04-24T01:36:00;0.40;;;0.40;;
34928;SDS011;21133;48.048;7.724;2023-04-24T01:38:26;0.40;;;0.40;;
34928;SDS011;21133;48.048;7.724;2023-04-24T01:40:52;0.97;;;0.97;;
34928;SDS011;21133;48.048;7.724;2023-04-24T01:43:18;0.40;;;0.40;;
34928;SDS011;21133;48.048;7.724;2023-04-24T01:45:44;0.43;;;0.43;;
34928;SDS011;21133;48.048;7.724;2023-04-24T01:48:11;0.67;;;0.60;;
34928;SDS011;21133;48.048;7.724;2023-04-24T01:50:37;0.93;;;0.40;;
34928;SDS011;21133;48.048;7.724;2023-04-24T01:53:03;0.80;;;0.43;;
34928;SDS011;21133;48.048;7.724;2023-04-24T01:55:29;0.40;;;0.40;;
34928;SDS011;21133;48.048;7.724;2023-04-24T01:57:55;0.53;;;0.30;;
34928;SDS011;21133;48.048;7.724;2023-04-24T02:00:21;0.40;;;0.30;;
34928;SDS011;21133;48.048;7.724;2023-04-24T02:02:47;1.13;;;0.40;;
34928;SDS011;21133;48.048;7.724;2023-04-24T02:05:13;1.07;;;0.40;;
34928;SDS011;21133;48.048;7.724;2023-04-24T02:07:39;0.30;;;0.30;;
34928;SDS011;21133;48.048;7.724;2023-04-24T02:10:06;0.40;;;0.40;;
34928;SDS011;21133;48.048;7.724;2023-04-24T02:12:32;0.33;;;0.33;;
34928;SDS011;21133;48.048;7.724;2023-04-24T02:14:58;1.27;;;1.17;;
34928;SDS011;21133;48.048;7.724;2023-04-24T02:17:24;0.30;;;0.30;;
34928;SDS011;21133;48.048;7.724;2023-04-24T02:19:50;0.40;;;0.40;;
34928;SDS011;21133;48.048;7.724;2023-04-24T02:22:16;2.30;;;0.40;;
34928;SDS011;21133;48.048;7.724;2023-04-24T02:24:42;1.37;;;0.30;;
34928;SDS011;21133;48.048;7.724;2023-04-24T02:30:12;1.93;;;0.40;;
34928;SDS011;21133;48.048;7.724;2023-04-24T02:32:38;0.40;;;0.40;;
34928;SDS011;21133;48.048;7.724;2023-04-24T02:35:04;0.30;;;0.30;;
34928;SDS011;21133;48.048;7.724;2023-04-24T02:37:30;0.90;;;0.50;;
34928;SDS011;21133;48.048;7.724;2023-04-24T02:39:56;2.77;;;1.00;;
34928;SDS011;21133;48.048;7.724;2023-04-24T02:42:22;0.40;;;0.40;;
34928;SDS011;21133;48.048;7.724;2023-04-24T02:44:48;0.57;;;0.33;;
34928;SDS011;21133;48.048;7.724;2023-04-24T02:47:16;0.73;;;0.40;;
34928;SDS011;21133;48.048;7.724;2023-04-24T02:49:42;1.97;;;0.50;;
34928;SDS011;21133;48.048;7.724;2023-04-24T02:52:08;3.17;;;0.70;;
34928;SDS011;21133;48.048;7.724;2023-04-24T02:54:34;3.67;;;0.57;;
34928;SDS011;21133;48.048;7.724;2023-04-24T02:56:59;1.37;;;1.27;;
34928;SDS011;21133;48.048;7.724;2023-04-24T02:59:26;7.90;;;0.53;;
34928;SDS011;21133;48.048;7.724;2023-04-24T03:01:53;2.33;;;0.47;;
34928;SDS011;21133;48.048;7.724;2023-04-24T03:04:19;1.50;;;0.57;;
34928;SDS011;21133;48.048;7.724;2023-04-24T03:06:45;1.03;;;0.53;;
34928;SDS011;21133;48.048;7.724;2023-04-24T03:09:11;0.60;;;0.60;;
34928;SDS011;21133;48.048;7.724;2023-04-24T03:11:37;0.80;;;0.80;;
34928;SDS011;21133;48.048;7.724;2023-04-24T03:14:03;0.40;;;0.40;;
34928;SDS011;21133;48.048;7.724;2023-04-24T03:16:29;3.30;;;0.53;;
34928;SDS011;21133;48.048;7.724;2023-04-24T03:18:55;0.60;;;0.60;;
34928;SDS011;21133;48.048;7.724;2023-04-24T03:21:22;1.67;;;0.57;;
34928;SDS011;21133;48.048;7.724;2023-04-24T03:23:48;2.87;;;0.60;;
34928;SDS011;21133;48.048;7.724;2023-04-24T03:26:14;0.93;;;0.30;;
34928;SDS011;21133;48.048;7.724;2023-04-24T03:28:40;1.70;;;0.50;;
34928;SDS011;21133;48.048;7.724;2023-04-24T03:31:06;0.40;;;0.40;;
34928;SDS011;21133;48.048;7.724;2023-04-24T03:33:32;2.33;;;0.50;;
34928;SDS011;21133;48.048;7.724;2023-04-24T03:35:57;3.60;;;0.60;;
34928;SDS011;21133;48.048;7.724;2023-04-24T03:38:23;0.47;;;0.47;;
34928;SDS011;21133;48.048;7.724;2023-04-24T03:40:49;2.13;;;0.47;;
34928;SDS011;21133;48.048;7.724;2023-04-24T03:43:15;0.50;;;0.50;;
34928;SDS011;21133;48.048;7.724;2023-04-24T03:45:41;0.60;;;0.60;;
34928;SDS011;21133;48.048;7.724;2023-04-24T03:48:07;0.67;;;0.57;;
34928;SDS011;21133;48.048;7.724;2023-04-24T03:50:33;1.00;;;0.80;;
34928;SDS011;21133;48.048;7.724;2023-04-24T03:52:59;0.40;;;0.40;;
34928;SDS011;21133;48.048;7.724;2023-04-24T03:55:25;0.50;;;0.50;;
34928;SDS011;21133;48.048;7.724;2023-04-24T03:57:51;1.23;;;0.47;;
34928;SDS011;21133;48.048;7.724;2023-04-24T04:00:17;1.90;;;0.60;;
34928;SDS011;21133;48.048;7.724;2023-04-24T04:02:43;0.83;;;0.60;;
34928;SDS011;21133;48.048;7.724;2023-04-24T04:05:09;4.77;;;0.60;;
34928;SDS011;21133;48.048;7.724;2023-04-24T04:07:35;3.50;;;0.93;;
34928;SDS011;21133;48.048;7.724;2023-04-24T04:10:01;1.33;;;0.60;;
34928;SDS011;21133;48.048;7.724;2023-04-24T04:12:27;3.17;;;0.60;;
34928;SDS011;21133;48.048;7.724;2023-04-24T04:14:53;0.60;;;0.60;;
34928;SDS011;21133;48.048;7.724;2023-04-24T04:17:19;0.90;;;0.50;;
34928;SDS011;21133;48.048;7.724;2023-04-24T04:19:45;0.40;;;0.40;;
34928;SDS011;21133;48.048;7.724;2023-04-24T04:22:11;5.10;;;0.50;;
34928;SDS011;21133;48.048;7.724;2023-04-24T04:24:37;1.23;;;1.13;;
34928;SDS011;21133;48.048;7.724;2023-04-24T04:27:08;2.93;;;0.67;;
34928;SDS011;21133;48.048;7.724;2023-04-24T04:29:34;0.40;;;0.40;;
34928;SDS011;21133;48.048;7.724;2023-04-24T04:32:00;0.43;;;0.43;;
34928;SDS011;21133;48.048;7.724;2023-04-24T04:34:27;0.73;;;0.73;;
34928;SDS011;21133;48.048;7.724;2023-04-24T04:36:54;2.00;;;0.50;;
34928;SDS011;21133;48.048;7.724;2023-04-24T04:39:20;3.90;;;0.90;;
34928;SDS011;21133;48.048;7.724;2023-04-24T04:41:46;1.07;;;0.77;;
34928;SDS011;21133;48.048;7.724;2023-04-24T04:44:13;0.50;;;0.50;;
34928;SDS011;21133;48.048;7.724;2023-04-24T04:46:39;0.63;;;0.63;;
34928;SDS011;21133;48.048;7.724;2023-04-24T04:49:06;2.57;;;1.20;;
34928;SDS011;21133;48.048;7.724;2023-04-24T04:51:33;0.80;;;0.60;;
34928;SDS011;21133;48.048;7.724;2023-04-24T04:53:59;1.17;;;0.97;;
34928;SDS011;21133;48.048;7.724;2023-04-24T04:56:25;0.47;;;0.47;;
34928;SDS011;21133;48.048;7.724;2023-04-24T04:58:51;0.70;;;0.70;;
34928;SDS011;21133;48.048;7.724;2023-04-24T05:01:18;0.60;;;0.60;;
34928;SDS011;21133;48.048;7.724;2023-04-24T05:03:44;1.40;;;0.50;;
34928;SDS011;21133;48.048;7.724;2023-04-24T05:06:10;0.60;;;0.60;;
34928;SDS011;21133;48.048;7.724;2023-04-24T05:08:36;0.57;;;0.57;;
34928;SDS011;21133;48.048;7.724;2023-04-24T05:11:02;1.80;;;1.70;;
34928;SDS011;21133;48.048;7.724;2023-04-24T05:13:28;0.50;;;0.50;;
34928;SDS011;21133;48.048;7.724;2023-04-24T05:15:54;3.47;;;0.67;;
34928;SDS011;21133;48.048;7.724;2023-04-24T05:18:20;2.83;;;0.70;;
34928;SDS011;21133;48.048;7.724;2023-04-24T05:20:46;1.70;;;0.70;;
34928;SDS011;21133;48.048;7.724;2023-04-24T05:23:12;1.60;;;1.50;;
34928;SDS011;21133;48.048;7.724;2023-04-24T05:25:37;5.63;;;1.10;;
34928;SDS011;21133;48.048;7.724;2023-04-24T05:28:05;1.80;;;0.90;;
34928;SDS011;21133;48.048;7.724;2023-04-24T05:30:31;2.53;;;1.30;;
34928;SDS011;21133;48.048;7.724;2023-04-24T05:32:56;0.80;;;0.80;;
34928;SDS011;21133;48.048;7.724;2023-04-24T05:35:22;2.47;;;1.10;;
34928;SDS011;21133;48.048;7.724;2023-04-24T05:37:48;0.83;;;0.83;;
34928;SDS011;21133;48.048;7.724;2023-04-24T05:40:14;0.83;;;0.80;;
34928;SDS011;21133;48.048;7.724;2023-04-24T05:42:41;2.00;;;0.70;;
34928;SDS011;21133;48.048;7.724;2023-04-24T05:45:07;0.90;;;0.90;;
34928;SDS011;21133;48.048;7.724;2023-04-24T05:47:34;1.23;;;1.13;;
34928;SDS011;21133;48.048;7.724;2023-04-24T05:50:00;4.77;;;1.37;;
34928;SDS011;21133;48.048;7.724;2023-04-24T05:52:26;1.27;;;1.20;;
34928;SDS011;21133;48.048;7.724;2023-04-24T05:54:52;2.10;;;1.20;;
34928;SDS011;21133;48.048;7.724;2023-04-24T05:57:18;2.63;;;2.50;;
34928;SDS011;21133;48.048;7.724;2023-04-24T05:59:44;7.00;;;2.37;;
34928;SDS011;21133;48.048;7.724;2023-04-24T06:02:10;1.43;;;1.20;;
34928;SDS011;21133;48.048;7.724;2023-04-24T06:04:36;1.00;;;1.00;;
34928;SDS011;21133;48.048;7.724;2023-04-24T06:07:02;1.07;;;1.00;;
34928;SDS011;21133;48.048;7.724;2023-04-24T06:09:28;1.50;;;1.20;;
34928;SDS011;21133;48.048;7.724;2023-04-24T06:11:54;1.23;;;1.20;;
34928;SDS011;21133;48.048;7.724;2023-04-24T06:14:21;1.07;;;1.07;;
34928;SDS011;21133;48.048;7.724;2023-04-24T06:16:47;1.00;;;1.00;;
34928;SDS011;21133;48.048;7.724;2023-04-24T06:19:13;3.73;;;1.57;;
34928;SDS011;21133;48.048;7.724;2023-04-24T06:21:39;1.40;;;1.23;;
34928;SDS011;21133;48.048;7.724;2023-04-24T06:24:05;1.20;;;1.10;;
34928;SDS011;21133;48.048;7.724;2023-04-24T06:26:31;0.87;;;0.87;;
34928;SDS011;21133;48.048;7.724;2023-04-24T06:28:57;1.63;;;1.63;;
34928;SDS011;21133;48.048;7.724;2023-04-24T06:31:24;2.60;;;1.07;;
34928;SDS011;21133;48.048;7.724;2023-04-24T06:33:50;1.93;;;1.83;;
34928;SDS011;21133;48.048;7.724;2023-04-24T06:36:16;1.40;;;1.40;;
34928;SDS011;21133;48.048;7.724;2023-04-24T06:38:42;1.70;;;1.60;;
34928;SDS011;21133;48.048;7.724;2023-04-24T06:41:09;1.20;;;1.20;;
34928;SDS011;21133;48.048;7.724;2023-04-24T06:43:35;1.10;;;1.10;;
34928;SDS011;21133;48.048;7.724;2023-04-24T06:46:01;5.40;;;1.20;;
34928;SDS011;21133;48.048;7.724;2023-04-24T06:48:28;1.77;;;1.50;;
34928;SDS011;21133;48.048;7.724;2023-04-24T06:50:54;0.90;;;0.90;;
34928;SDS011;21133;48.048;7.724;2023-04-24T06:53:20;2.17;;;1.10;;
34928;SDS011;21133;48.048;7.724;2023-04-24T06:55:46;1.37;;;1.27;;
34928;SDS011;21133;48.048;7.724;2023-04-24T06:58:12;0.90;;;0.73;;
34928;SDS011;21133;48.048;7.724;2023-04-24T07:00:44;0.97;;;0.97;;
34928;SDS011;21133;48.048;7.724;2023-04-24T07:03:10;1.33;;;1.27;;
34928;SDS011;21133;48.048;7.724;2023-04-24T07:05:36;3.33;;;1.57;;
34928;SDS011;21133;48.048;7.724;2023-04-24T07:08:03;2.80;;;1.73;;
34928;SDS011;21133;48.048;7.724;2023-04-24T07:10:29;5.60;;;1.20;;
34928;SDS011;21133;48.048;7.724;2023-04-24T07:12:55;1.07;;;1.03;;
34928;SDS011;21133;48.048;7.724;2023-04-24T07:15:21;6.30;;;1.50;;
34928;SDS011;21133;48.048;7.724;2023-04-24T07:17:48;1.00;;;1.00;;
34928;SDS011;21133;48.048;7.724;2023-04-24T07:20:14;1.63;;;1.30;;
34928;SDS011;21133;48.048;7.724;2023-04-24T07:22:40;2.03;;;1.73;;
34928;SDS011;21133;48.048;7.724;2023-04-24T07:25:06;1.70;;;1.67;;
34928;SDS011;21133;48.048;7.724;2023-04-24T07:27:33;1.40;;;1.40;;
34928;SDS011;21133;48.048;7.724;2023-04-24T07:29:59;2.63;;;1.03;;
34928;SDS011;21133;48.048;7.724;2023-04-24T07:32:26;0.73;;;0.73;;
34928;SDS011;21133;48.048;7.724;2023-04-24T07:34:51;1.40;;;1.30;;
34928;SDS011;21133;48.048;7.724;2023-04-24T07:37:17;1.90;;;1.00;;
34928;SDS011;21133;48.048;7.724;2023-04-24T07:39:44;1.03;;;0.93;;
34928;SDS011;21133;48.048;7.724;2023-04-24T07:42:10;1.53;;;1.20;;
34928;SDS011;21133;48.048;7.724;2023-04-24T07:44:35;0.80;;;0.80;;
34928;SDS011;21133;48.048;7.724;2023-04-24T07:47:01;1.30;;;0.80;;
34928;SDS011;21133;48.048;7.724;2023-04-24T07:49:27;1.07;;;1.07;;
34928;SDS011;21133;48.048;7.724;2023-04-24T07:51:53;1.30;;;1.30;;
34928;SDS011;21133;48.048;7.724;2023-04-24T07:54:20;1.83;;;1.20;;
34928;SDS011;21133;48.048;7.724;2023-04-24T07:56:45;1.07;;;0.93;;
34928;SDS011;21133;48.048;7.724;2023-04-24T07:59:11;2.20;;;1.10;;
34928;SDS011;21133;48.048;7.724;2023-04-24T08:01:37;1.00;;;1.00;;
34928;SDS011;21133;48.048;7.724;2023-04-24T08:04:03;1.00;;;0.90;;
34928;SDS011;21133;48.048;7.724;2023-04-24T08:06:29;2.50;;;1.13;;
34928;SDS011;21133;48.048;7.724;2023-04-24T08:08:58;0.80;;;0.80;;
34928;SDS011;21133;48.048;7.724;2023-04-24T08:11:24;1.83;;;0.80;;
34928;SDS011;21133;48.048;7.724;2023-04-24T08:13:51;1.10;;;1.10;;
34928;SDS011;21133;48.048;7.724;2023-04-24T08:16:17;1.23;;;0.80;;
34928;SDS011;21133;48.048;7.724;2023-04-24T08:18:43;1.10;;;1.00;;
34928;SDS011;21133;48.048;7.724;2023-04-24T08:21:09;0.90;;;0.90;;
34928;SDS011;21133;48.048;7.724;2023-04-24T08:23:36;1.17;;;1.00;;
34928;SDS011;21133;48.048;7.724;2023-04-24T08:26:02;1.53;;;1.43;;
34928;SDS011;21133;48.048;7.724;2023-04-24T08:28:28;1.13;;;1.13;;
34928;SDS011;21133;48.048;7.724;2023-04-24T08:30:54;1.27;;;0.97;;
34928;SDS011;21133;48.048;7.724;2023-04-24T08:33:21;1.03;;;0.90;;
34928;SDS011;21133;48.048;7.724;2023-04-24T08:35:47;3.00;;;1.33;;
34928;SDS011;21133;48.048;7.724;2023-04-24T08:38:13;1.50;;;1.20;;
34928;SDS011;21133;48.048;7.724;2023-04-24T08:40:39;1.07;;;1.07;;
34928;SDS011;21133;48.048;7.724;2023-04-24T08:43:05;1.40;;;1.10;;
34928;SDS011;21133;48.048;7.724;2023-04-24T08:45:32;1.03;;;1.03;;
34928;SDS011;21133;48.048;7.724;2023-04-24T08:47:58;1.17;;;0.97;;
34928;SDS011;21133;48.048;7.724;2023-04-24T08:50:26;1.00;;;1.00;;
34928;SDS011;21133;48.048;7.724;2023-04-24T08:52:52;0.90;;;0.90;;
34928;SDS011;21133;48.048;7.724;2023-04-24T08:55:19;0.83;;;0.83;;
34928;SDS011;21133;48.048;7.724;2023-04-24T08:57:46;1.03;;;0.80;;
34928;SDS011;21133;48.048;7.724;2023-04-24T09:00:15;3.23;;;1.27;;
34928;SDS011;21133;48.048;7.724;2023-04-24T09:02:42;0.83;;;0.80;;
34928;SDS011;21133;48.048;7.724;2023-04-24T09:05:08;0.80;;;0.80;;
34928;SDS011;21133;48.048;7.724;2023-04-24T09:07:35;0.87;;;0.83;;
34928;SDS011;21133;48.048;7.724;2023-04-24T09:10:05;4.73;;;1.17;;
34928;SDS011;21133;48.048;7.724;2023-04-24T09:12:32;3.53;;;1.10;;
34928;SDS011;21133;48.048;7.724;2023-04-24T09:14:58;2.73;;;0.73;;
34928;SDS011;21133;48.048;7.724;2023-04-24T09:17:25;2.50;;;1.27;;
34928;SDS011;21133;48.048;7.724;2023-04-24T09:19:52;1.33;;;1.23;;
34928;SDS011;21133;48.048;7.724;2023-04-24T09:22:18;2.93;;;1.53;;
34928;SDS011;21133;48.048;7.724;2023-04-24T09:24:44;0.90;;;0.90;;
34928;SDS011;21133;48.048;7.724;2023-04-24T09:27:11;1.70;;;0.77;;
34928;SDS011;21133;48.048;7.724;2023-04-24T09:29:37;1.63;;;0.70;;
34928;SDS011;21133;48.048;7.724;2023-04-24T09:32:17;0.63;;;0.63;;
34928;SDS011;21133;48.048;7.724;2023-04-24T09:34:44;0.90;;;0.90;;
34928;SDS011;21133;48.048;7.724;2023-04-24T09:37:15;0.60;;;0.60;;
34928;SDS011;21133;48.048;7.724;2023-04-24T09:39:43;1.03;;;0.80;;
34928;SDS011;21133;48.048;7.724;2023-04-24T09:42:09;0.80;;;0.63;;
34928;SDS011;21133;48.048;7.724;2023-04-24T09:44:36;0.60;;;0.60;;
34928;SDS011;21133;48.048;7.724;2023-04-24T09:47:02;0.40;;;0.40;;
34928;SDS011;21133;48.048;7.724;2023-04-24T09:49:28;0.87;;;0.87;;
34928;SDS011;21133;48.048;7.724;2023-04-24T09:52:10;0.30;;;0.30;;
34928;SDS011;21133;48.048;7.724;2023-04-24T09:54:37;2.23;;;1.50;;
34928;SDS011;21133;48.048;7.724;2023-04-24T09:57:03;3.23;;;2.93;;
34928;SDS011;21133;48.048;7.724;2023-04-24T09:59:29;1.30;;;1.30;;
34928;SDS011;21133;48.048;7.724;2023-04-24T10:01:56;0.53;;;0.53;;
34928;SDS011;21133;48.048;7.724;2023-04-24T10:04:26;0.70;;;0.70;;
34928;SDS011;21133;48.048;7.724;2023-04-24T10:06:53;0.40;;;0.40;;
34928;SDS011;21133;48.048;7.724;2023-04-24T10:09:21;0.93;;;0.70;;
34928;SDS011;21133;48.048;7.724;2023-04-24T10:11:49;0.40;;;0.40;;
34928;SDS011;21133;48.048;7.724;2023-04-24T10:14:16;0.70;;;0.50;;
34928;SDS011;21133;48.048;7.724;2023-04-24T10:16:43;0.60;;;0.60;;
34928;SDS011;21133;48.048;7.724;2023-04-24T10:19:09;1.03;;;0.50;;
34928;SDS011;21133;48.048;7.724;2023-04-24T10:21:38;0.73;;;0.57;;
34928;SDS011;21133;48.048;7.724;2023-04-24T10:24:07;0.40;;;0.40;;
34928;SDS011;21133;48.048;7.724;2023-04-24T10:26:34;0.57;;;0.57;;
34928;SDS011;21133;48.048;7.724;2023-04-24T10:29:00;1.27;;;1.07;;
34928;SDS011;21133;48.048;7.724;2023-04-24T10:31:27;0.50;;;0.50;;
34928;SDS011;21133;48.048;7.724;2023-04-24T10:33:53;0.43;;;0.43;;
34928;SDS011;21133;48.048;7.724;2023-04-24T10:36:19;0.70;;;0.70;;
34928;SDS011;21133;48.048;7.724;2023-04-24T10:38:48;0.60;;;0.60;;
34928;SDS011;21133;48.048;7.724;2023-04-24T10:41:15;1.20;;;0.70;;
34928;SDS011;21133;48.048;7.724;2023-04-24T10:43:48;1.27;;;0.90;;
34928;SDS011;21133;48.048;7.724;2023-04-24T10:46:30;7.70;;;5.53;;
34928;SDS011;21133;48.048;7.724;2023-04-24T10:48:56;5.47;;;5.03;;
34928;SDS011;21133;48.048;7.724;2023-04-24T10:51:23;9.33;;;8.17;;
34928;SDS011;21133;48.048;7.724;2023-04-24T10:53:50;3.33;;;3.03;;
34928;SDS011;21133;48.048;7.724;2023-04-24T10:56:16;26.63;;;15.53;;
34928;SDS011;21133;48.048;7.724;2023-04-24T10:58:43;28.07;;;16.77;;
34928;SDS011;21133;48.048;7.724;2023-04-24T11:01:23;15.97;;;8.13;;
34928;SDS011;21133;48.048;7.724;2023-04-24T11:03:50;25.27;;;13.67;;
34928;SDS011;21133;48.048;7.724;2023-04-24T11:06:20;6.40;;;5.50;;
34928;SDS011;21133;48.048;7.724;2023-04-24T11:08:57;1.60;;;1.53;;
34928;SDS011;21133;48.048;7.724;2023-04-24T11:11:24;3.80;;;3.07;;
34928;SDS011;21133;48.048;7.724;2023-04-24T11:16:29;2.97;;;2.47;;
34928;SDS011;21133;48.048;7.724;2023-04-24T11:21:42;4.33;;;3.97;;
34928;SDS011;21133;48.048;7.724;2023-04-24T11:26:54;4.17;;;3.87;;
34928;SDS011;21133;48.048;7.724;2023-04-24T11:29:20;2.30;;;2.23;;
34928;SDS011;21133;48.048;7.724;2023-04-24T11:31:47;7.80;;;5.90;;
34928;SDS011;21133;48.048;7.724;2023-04-24T11:34:16;0.50;;;0.50;;
34928;SDS011;21133;48.048;7.724;2023-04-24T11:36:48;3.73;;;3.43;;
34928;SDS011;21133;48.048;7.724;2023-04-24T11:39:14;3.07;;;1.00;;
34928;SDS011;21133;48.048;7.724;2023-04-24T11:41:40;0.67;;;0.40;;
34928;SDS011;21133;48.048;7.724;2023-04-24T11:44:07;0.40;;;0.40;;
34928;SDS011;21133;48.048;7.724;2023-04-24T11:46:34;1.47;;;0.80;;
34928;SDS011;21133;48.048;7.724;2023-04-24T11:49:00;0.60;;;0.60;;
34928;SDS011;21133;48.048;7.724;2023-04-24T11:51:26;2.97;;;1.47;;
34928;SDS011;21133;48.048;7.724;2023-04-24T11:53:53;1.63;;;1.53;;
34928;SDS011;21133;48.048;7.724;2023-04-24T11:56:19;1.20;;;1.20;;
34928;SDS011;21133;48.048;7.724;2023-04-24T11:58:47;1.10;;;1.10;;
34928;SDS011;21133;48.048;7.724;2023-04-24T12:01:13;4.10;;;1.20;;
34928;SDS011;21133;48.048;7.724;2023-04-24T12:03:39;0.70;;;0.70;;
34928;SDS011;21133;48.048;7.724;2023-04-24T12:06:09;0.70;;;0.70;;
34928;SDS011;21133;48.048;7.724;2023-04-24T12:08:36;1.37;;;0.60;;
34928;SDS011;21133;48.048;7.724;2023-04-24T12:11:02;0.60;;;0.60;;
34928;SDS011;21133;48.048;7.724;2023-04-24T12:13:28;1.23;;;0.73;;
34928;SDS011;21133;48.048;7.724;2023-04-24T12:15:56;0.43;;;0.43;;
34928;SDS011;21133;48.048;7.724;2023-04-24T12:18:22;0.80;;;0.80;;
34928;SDS011;21133;48.048;7.724;2023-04-24T12:20:48;0.60;;;0.60;;
34928;SDS011;21133;48.048;7.724;2023-04-24T12:23:15;0.80;;;0.80;;
34928;SDS011;21133;48.048;7.724;2023-04-24T12:25:42;1.47;;;0.50;;
34928;SDS011;21133;48.048;7.724;2023-04-24T12:28:12;0.67;;;0.60;;
34928;SDS011;21133;48.048;7.724;2023-04-24T12:30:42;2.40;;;0.67;;
34928;SDS011;21133;48.048;7.724;2023-04-24T12:33:09;0.73;;;0.73;;
34928;SDS011;21133;48.048;7.724;2023-04-24T12:35:35;1.23;;;0.90;;
34928;SDS011;21133;48.048;7.724;2023-04-24T12:38:05;0.93;;;0.83;;
34928;SDS011;21133;48.048;7.724;2023-04-24T12:40:32;0.60;;;0.50;;
34928;SDS011;21133;48.048;7.724;2023-04-24T12:42:58;0.60;;;0.60;;
34928;SDS011;21133;48.048;7.724;2023-04-24T12:45:24;0.60;;;0.60;;
34928;SDS011;21133;48.048;7.724;2023-04-24T12:47:50;0.60;;;0.60;;
34928;SDS011;21133;48.048;7.724;2023-04-24T12:50:16;2.10;;;0.57;;
34928;SDS011;21133;48.048;7.724;2023-04-24T12:52:43;0.60;;;0.60;;
34928;SDS011;21133;48.048;7.724;2023-04-24T12:55:09;1.13;;;0.63;;
34928;SDS011;21133;48.048;7.724;2023-04-24T12:57:37;1.23;;;1.13;;
34928;SDS011;21133;48.048;7.724;2023-04-24T13:00:03;0.50;;;0.50;;
34928;SDS011;21133;48.048;7.724;2023-04-24T13:02:30;3.60;;;1.07;;
34928;SDS011;21133;48.048;7.724;2023-04-24T13:04:57;0.60;;;0.60;;
34928;SDS011;21133;48.048;7.724;2023-04-24T13:07:23;0.77;;;0.70;;
34928;SDS011;21133;48.048;7.724;2023-04-24T13:09:50;0.60;;;0.60;;
34928;SDS011;21133;48.048;7.724;2023-04-24T13:12:17;2.20;;;0.50;;
34928;SDS011;21133;48.048;7.724;2023-04-24T13:14:43;0.63;;;0.63;;
34928;SDS011;21133;48.048;7.724;2023-04-24T13:17:10;3.90;;;0.50;;
34928;SDS011;21133;48.048;7.724;2023-04-24T13:19:37;1.27;;;0.80;;
34928;SDS011;21133;48.048;7.724;2023-04-24T13:22:04;0.47;;;0.47;;
34928;SDS011;21133;48.048;7.724;2023-04-24T13:24:30;0.67;;;0.67;;
34928;SDS011;21133;48.048;7.724;2023-04-24T13:26:56;1.50;;;0.70;;
34928;SDS011;21133;48.048;7.724;2023-04-24T13:29:22;1.40;;;0.80;;
34928;SDS011;21133;48.048;7.724;2023-04-24T13:31:52;1.30;;;0.80;;
34928;SDS011;21133;48.048;7.724;2023-04-24T13:34:24;0.50;;;0.50;;
34928;SDS011;21133;48.048;7.724;2023-04-24T13:36:57;0.70;;;0.70;;
34928;SDS011;21133;48.048;7.724;2023-04-24T13:39:23;1.70;;;0.77;;
34928;SDS011;21133;48.048;7.724;2023-04-24T13:41:50;0.47;;;0.47;;
34928;SDS011;21133;48.048;7.724;2023-04-24T13:44:16;0.97;;;0.60;;
34928;SDS011;21133;48.048;7.724;2023-04-24T13:46:43;0.60;;;0.60;;
34928;SDS011;21133;48.048;7.724;2023-04-24T13:49:10;0.80;;;0.80;;
34928;SDS011;21133;48.048;7.724;2023-04-24T13:51:36;1.10;;;1.10;;
34928;SDS011;21133;48.048;7.724;2023-04-24T13:54:02;2.40;;;0.90;;
34928;SDS011;21133;48.048;7.724;2023-04-24T13:56:28;0.80;;;0.63;;
34928;SDS011;21133;48.048;7.724;2023-04-24T13:58:54;1.07;;;1.07;;
34928;SDS011;21133;48.048;7.724;2023-04-24T14:01:20;5.03;;;1.00;;
34928;SDS011;21133;48.048;7.724;2023-04-24T14:03:49;0.77;;;0.63;;
34928;SDS011;21133;48.048;7.724;2023-04-24T14:06:16;1.93;;;0.90;;
34928;SDS011;21133;48.048;7.724;2023-04-24T14:08:42;1.87;;;1.00;;
34928;SDS011;21133;48.048;7.724;2023-04-24T14:11:08;0.80;;;0.80;;
34928;SDS011;21133;48.048;7.724;2023-04-24T14:13:35;1.30;;;1.20;;
34928;SDS011;21133;48.048;7.724;2023-04-24T14:16:01;1.00;;;1.00;;
34928;SDS011;21133;48.048;7.724;2023-04-24T14:18:27;1.07;;;1.07;;
34928;SDS011;21133;48.048;7.724;2023-04-24T14:20:53;0.83;;;0.80;;
34928;SDS011;21133;48.048;7.724;2023-04-24T14:23:20;1.00;;;1.00;;
34928;SDS011;21133;48.048;7.724;2023-04-24T14:25:46;2.70;;;1.03;;
34928;SDS011;21133;48.048;7.724;2023-04-24T14:28:16;0.70;;;0.70;;
34928;SDS011;21133;48.048;7.724;2023-04-24T14:30:42;2.90;;;0.70;;
34928;SDS011;21133;48.048;7.724;2023-04-24T14:33:08;0.80;;;0.70;;
34928;SDS011;21133;48.048;7.724;2023-04-24T14:35:34;1.10;;;1.10;;
34928;SDS011;21133;48.048;7.724;2023-04-24T14:38:00;1.30;;;1.20;;
34928;SDS011;21133;48.048;7.724;2023-04-24T14:40:26;2.40;;;0.80;;
34928;SDS011;21133;48.048;7.724;2023-04-24T14:42:52;6.03;;;1.00;;
34928;SDS011;21133;48.048;7.724;2023-04-24T14:45:18;1.00;;;0.90;;
34928;SDS011;21133;48.048;7.724;2023-04-24T14:47:44;0.90;;;0.90;;
34928;SDS011;21133;48.048;7.724;2023-04-24T14:50:10;1.13;;;1.00;;
34928;SDS011;21133;48.048;7.724;2023-04-24T14:52:37;1.07;;;0.73;;
34928;SDS011;21133;48.048;7.724;2023-04-24T14:55:03;0.73;;;0.57;;